• Join FlightAware (Why Join?)
  • Login
  • US Flag 
06:54PM EDT


 

Airport Tracker/Info


-or-


 

Live Flight TrackerFlight Track Log ✈ PDT4155 ✈ 13-Dec-2013 ✈ KBGM - KPHL

Flight Track Log - Related Links

Times and Time Zones

All times are in EST time to prevent confusion due to time zone crossing. See the PDT4155 flight status page for this flight to view local times or setup timezone preferences in your user account.

Time Position Orientation Groundspeed Altitude Reporting Facility
EST Latitude Longitude Course Direction KTS MPH feet Rate Location/Type
07:22AM 42.0596 -75.9309 180° South  Level Estimated
07:23AM 42.0086 -75.9313 180° South  Level FlightAware Approximate
07:24AM 41.9576 -75.9317 180° South  Level FlightAware Approximate
07:25AM 41.9065 -75.9321 180° South  Level FlightAware Approximate
07:26AM 41.8555 -75.9325 180° South  Level FlightAware Approximate
07:27AM 41.8062 -75.9148 154° Southeast  Level Estimated
07:28AM 41.7569 -75.8971 160° South  Level Estimated
07:29AM 41.7075 -75.8794 159° South  Level Estimated
07:30AM 41.6585 -75.8606 164° South  Level FlightAware Approximate
07:31AM 41.6094 -75.8418 164° South  Level FlightAware Approximate
07:32AM 41.5601 -75.8243 153° Southeast  Level Estimated
07:33AM 41.5107 -75.8068 161° South  Level Estimated
07:34AM 41.4630 -75.7826 159° South  Level FlightAware Approximate
07:35AM 41.4153 -75.7584 159° South  Level FlightAware Approximate
07:36AM 41.3676 -75.7343 159° South  Level FlightAware Approximate
07:37AM 41.3181 -75.7176 162° South  Level Estimated
07:38AM 41.2700 -75.6946 160° South  Level FlightAware Approximate
07:39AM 41.2220 -75.6718 160° South  Level FlightAware Approximate
07:40AM 41.1739 -75.6490 160° South  Level FlightAware Approximate
07:41AM 41.1258 -75.6262 160° South  Level FlightAware Approximate
07:42AM 41.0762 -75.6106 159° South  Level Estimated
07:43AM 41.0265 -75.5951 163° South  Level Estimated
07:43AM 40.7167 -75.6500 190° South 267 307 7,900  Level Philadelphia TRACON
07:44AM 40.9784 -75.5725 160° South  Level FlightAware Approximate
07:44AM 40.6500 -75.6333 169° South 277 319 7,500  Level Philadelphia TRACON
07:45AM 40.9303 -75.5499 160° South  Level FlightAware Approximate
07:45AM 40.5833 -75.6167 169° South 277 319 7,000  Level Philadelphia TRACON
07:46AM 40.8822 -75.5273 160° South  Level FlightAware Approximate
07:46AM 40.5167 -75.5500 143° Southeast 299 344 6,500  Level Philadelphia TRACON
07:47AM 40.8340 -75.5048 160° South  Level FlightAware Approximate
07:47AM 40.4667 -75.4833 135° Southeast 293 337 6,000  Level Philadelphia TRACON
07:48AM 40.7841 -75.4909 190° South  Level Estimated
07:48AM 40.4000 -75.4000 136° Southeast 289 333 5,500  Level Philadelphia TRACON
07:49AM 40.3333 -75.3167 136° Southeast 285 328 5,000 -540 Descending Philadelphia TRACON
07:50AM 40.2833 -75.2500 135° Southeast 278 320 4,500 -540 Descending Philadelphia TRACON
07:51AM 40.2333 -75.1833 134° Southeast 274 315 4,000 -300 Descending Philadelphia TRACON
07:52AM 40.1833 -75.1167 134° Southeast 259 298 4,000  Level Philadelphia TRACON
07:53AM 40.1333 -75.0500 134° Southeast 256 295 4,000  Level Philadelphia TRACON
07:54AM 40.0667 -75.0167 159° South 211 243 4,000 -60 Level Philadelphia TRACON
07:55AM 40.0167 -74.9833 153° Southeast 214 246 3,900 -540 Descending Philadelphia TRACON
07:56AM 39.9667 -74.9833 180° South 193 222 3,000 -480 Descending Philadelphia TRACON
07:57AM 39.9167 -75.0167 207° Southwest 156 180 3,000 -240 Level Philadelphia TRACON
07:58AM 39.9167 -75.0667 270° West 155 178 2,600 -660 Descending Philadelphia TRACON
07:59AM 39.9000 -75.1167 247° West 141 162 1,800 -840 Descending Philadelphia TRACON
08:00AM 39.9000 -75.1500 270° West 99 114 1,100 -660 Descending Philadelphia TRACON
08:01AM 39.8833 -75.2000 247° West 99 114 500 -600 Descending Philadelphia TRACON